createdAt,value
2017-12-12T00:01:27.644Z,34.17
2017-12-12T00:03:55.390Z,29.73
2017-12-12T00:06:22.866Z,34.80
2017-12-12T00:08:50.279Z,33.25
2017-12-12T00:11:17.683Z,32.40
2017-12-12T00:13:45.207Z,29.75
2017-12-12T00:16:12.620Z,31.20
2017-12-12T00:18:40.076Z,27.00
2017-12-12T00:21:07.759Z,27.73
2017-12-12T00:23:35.144Z,29.63
2017-12-12T00:26:03.461Z,25.87
2017-12-12T00:28:31.255Z,28.73
2017-12-12T00:30:58.888Z,28.10
2017-12-12T00:33:26.857Z,27.30
2017-12-12T00:35:55.903Z,26.80
2017-12-12T00:38:23.339Z,25.50
2017-12-12T00:40:50.951Z,27.70
2017-12-12T00:43:18.420Z,30.70
2017-12-12T00:45:45.822Z,24.40
2017-12-12T00:48:13.547Z,22.97
2017-12-12T00:50:41.530Z,26.63
2017-12-12T00:53:09.227Z,22.90
2017-12-12T00:55:36.669Z,22.03
2017-12-12T00:58:04.129Z,27.40
2017-12-12T01:00:31.586Z,23.50
2017-12-12T01:02:59.052Z,20.73
2017-12-12T01:05:26.580Z,21.70
2017-12-12T01:07:55.394Z,20.25
2017-12-12T01:10:24.724Z,25.37
2017-12-12T01:12:52.200Z,36.45
2017-12-12T01:15:19.945Z,25.10
2017-12-12T01:17:47.710Z,23.33
2017-12-12T01:20:15.163Z,20.25
2017-12-12T01:22:43.235Z,21.00
2017-12-12T01:25:10.647Z,21.33
2017-12-12T01:27:38.211Z,20.10
2017-12-12T01:30:06.547Z,19.75
2017-12-12T01:32:33.959Z,25.37
2017-12-12T01:35:01.404Z,21.10
2017-12-12T01:37:28.803Z,19.27
2017-12-12T01:39:56.235Z,21.05
2017-12-12T01:42:23.613Z,20.53
2017-12-12T01:44:52.664Z,24.97
2017-12-12T01:47:20.034Z,18.50
2017-12-12T01:49:48.304Z,19.30
2017-12-12T01:52:15.964Z,25.45
2017-12-12T01:54:43.578Z,17.70
2017-12-12T01:57:11.197Z,16.37
2017-12-12T01:59:38.701Z,17.25
2017-12-12T02:02:06.164Z,24.40
2017-12-12T02:04:34.412Z,17.45
2017-12-12T02:07:01.894Z,19.05
2017-12-12T02:09:29.305Z,15.30
2017-12-12T02:11:56.708Z,18.70
2017-12-12T02:14:25.817Z,15.87
2017-12-12T02:16:53.365Z,15.13
2017-12-12T02:19:20.743Z,15.07
2017-12-12T02:21:49.048Z,14.85
2017-12-12T02:24:16.556Z,13.67
2017-12-12T02:26:43.957Z,13.67
2017-12-12T02:29:11.343Z,12.83
2017-12-12T02:31:39.141Z,13.10
2017-12-12T02:34:06.667Z,12.40
2017-12-12T02:36:34.110Z,13.45
2017-12-12T02:39:01.622Z,12.70
2017-12-12T02:41:29.098Z,11.80
2017-12-12T02:43:56.594Z,13.60
2017-12-12T02:46:24.306Z,13.15
2017-12-12T02:48:51.873Z,12.95
2017-12-12T02:51:19.411Z,11.27
2017-12-12T02:53:47.682Z,11.35
2017-12-12T02:56:15.115Z,11.50
2017-12-12T02:58:42.530Z,10.65
2017-12-12T03:01:09.905Z,10.77
2017-12-12T03:03:37.513Z,10.50
2017-12-12T03:06:06.250Z,12.45
2017-12-12T03:08:33.611Z,10.65
2017-12-12T03:11:01.139Z,12.10
2017-12-12T03:13:28.544Z,10.15
2017-12-12T03:15:56.987Z,10.47
2017-12-12T03:18:24.435Z,9.80
2017-12-12T03:20:51.864Z,10.65
2017-12-12T03:23:20.252Z,10.30
2017-12-12T03:25:47.677Z,11.00
2017-12-12T03:28:15.110Z,10.35
2017-12-12T03:30:42.564Z,11.20
2017-12-12T03:33:09.924Z,10.20
2017-12-12T03:35:37.373Z,11.35
2017-12-12T03:38:04.807Z,11.03
2017-12-12T03:40:34.454Z,9.95
2017-12-12T03:43:01.833Z,10.55
2017-12-12T03:45:29.301Z,10.40
2017-12-12T03:47:56.714Z,9.70
2017-12-12T03:50:25.070Z,10.80
2017-12-12T03:52:52.663Z,9.63
2017-12-12T03:55:20.029Z,8.90
2017-12-12T03:57:47.468Z,10.93
2017-12-12T04:00:15.731Z,8.40
2017-12-12T04:02:43.219Z,10.00
2017-12-12T04:05:10.575Z,9.85
2017-12-12T04:07:38.183Z,9.77
2017-12-12T04:10:05.778Z,7.85
2017-12-12T04:12:33.173Z,11.55
2017-12-12T04:15:00.662Z,17.25
2017-12-12T04:17:28.064Z,10.37
2017-12-12T04:19:55.434Z,10.67
2017-12-12T04:22:23.041Z,35.50
2017-12-12T04:24:50.607Z,22.50
2017-12-12T04:27:18.064Z,18.65
2017-12-12T04:29:45.638Z,21.03
2017-12-12T04:32:13.184Z,190.10
2017-12-12T04:34:40.670Z,337.00
2017-12-12T04:37:08.079Z,90.40
2017-12-12T04:39:35.535Z,94.10
2017-12-12T04:42:03.019Z,119.40
2017-12-12T04:44:30.496Z,30.70
2017-12-12T04:46:57.984Z,23.30
2017-12-12T04:49:25.376Z,33.95
2017-12-12T04:51:52.841Z,15.50
2017-12-12T04:54:20.379Z,38.77
2017-12-12T04:56:47.811Z,30.70
2017-12-12T04:59:15.301Z,21.83
2017-12-12T05:01:42.699Z,43.23
2017-12-12T05:04:10.148Z,23.03
2017-12-12T05:06:37.654Z,32.97
2017-12-12T05:09:05.101Z,25.53
2017-12-12T05:11:32.473Z,25.27
2017-12-12T05:13:59.929Z,12.90
2017-12-12T05:16:27.449Z,22.77
2017-12-12T05:18:54.936Z,20.20
2017-12-12T05:21:22.776Z,21.25
2017-12-12T05:23:50.189Z,25.40
2017-12-12T05:26:17.586Z,17.23
2017-12-12T05:28:45.063Z,40.03
2017-12-12T05:31:12.533Z,34.80
2017-12-12T05:33:39.967Z,38.23
2017-12-12T05:36:07.419Z,49.55
2017-12-12T05:38:34.856Z,40.15
2017-12-12T05:41:02.256Z,31.30
2017-12-12T05:43:29.740Z,41.23
2017-12-12T05:45:57.115Z,38.77
2017-12-12T05:48:24.535Z,37.10
2017-12-12T05:50:51.971Z,34.00
2017-12-12T05:53:19.407Z,38.87
2017-12-12T05:55:46.885Z,19.75
2017-12-12T05:58:14.375Z,31.10
2017-12-12T06:00:41.771Z,28.25
2017-12-12T06:03:10.369Z,37.43
2017-12-12T06:05:37.805Z,28.83
2017-12-12T06:08:05.199Z,36.70
2017-12-12T06:10:32.859Z,36.83
2017-12-12T06:13:00.333Z,38.45
2017-12-12T06:15:27.744Z,43.00
2017-12-12T06:17:55.273Z,32.60
2017-12-12T06:20:22.819Z,30.83
2017-12-12T06:22:50.272Z,23.13
2017-12-12T06:25:18.520Z,37.07
2017-12-12T06:27:48.196Z,37.00
2017-12-12T06:30:15.586Z,21.57
2017-12-12T06:32:43.581Z,19.43
2017-12-12T06:35:11.126Z,23.00
2017-12-12T06:37:38.571Z,21.37
2017-12-12T06:40:05.938Z,23.75
2017-12-12T06:42:33.380Z,25.25
2017-12-12T06:45:01.096Z,19.63
2017-12-12T06:47:28.519Z,21.93
2017-12-12T06:49:56.050Z,23.87
2017-12-12T06:52:23.537Z,28.30
2017-12-12T06:54:52.272Z,17.47
2017-12-12T06:57:19.729Z,21.27
2017-12-12T06:59:47.179Z,28.35
2017-12-12T07:02:14.743Z,20.55
2017-12-12T07:04:42.177Z,20.57
2017-12-12T07:07:10.120Z,17.80
2017-12-12T07:09:37.754Z,20.93
2017-12-12T07:12:05.223Z,21.15
2017-12-12T07:14:32.702Z,19.53
2017-12-12T07:17:00.168Z,24.00
2017-12-12T07:19:27.712Z,25.17
2017-12-12T07:21:55.385Z,26.87
2017-12-12T07:24:22.966Z,21.73
2017-12-12T07:26:50.745Z,28.00
2017-12-12T07:29:18.839Z,27.40
2017-12-12T07:31:46.827Z,30.27
2017-12-12T07:34:15.533Z,27.60
2017-12-12T07:36:43.835Z,25.70
2017-12-12T07:39:12.353Z,24.90
2017-12-12T07:41:39.930Z,27.37
2017-12-12T07:44:07.504Z,31.13
2017-12-12T07:46:36.196Z,24.85
2017-12-12T07:49:03.839Z,30.93
2017-12-12T07:51:31.461Z,35.70
2017-12-12T07:53:58.921Z,31.57
2017-12-12T07:56:26.439Z,32.60
2017-12-12T07:58:54.083Z,33.35
2017-12-12T08:01:21.815Z,37.57
2017-12-12T08:03:50.763Z,37.27
2017-12-12T08:06:18.270Z,30.75
2017-12-12T08:08:47.007Z,33.33
2017-12-12T08:11:15.343Z,36.63
2017-12-12T08:13:43.512Z,30.45
2017-12-12T08:16:11.268Z,30.23
2017-12-12T08:18:41.728Z,36.57
2017-12-12T08:21:09.296Z,32.20
2017-12-12T08:23:36.936Z,40.90
2017-12-12T08:26:04.562Z,29.67
2017-12-12T08:28:32.389Z,29.77
2017-12-12T08:33:33.393Z,25.93
2017-12-12T08:36:01.081Z,31.40
2017-12-12T08:38:28.833Z,30.20
2017-12-12T08:40:56.516Z,30.77
2017-12-12T08:43:26.515Z,26.65
2017-12-12T08:45:55.340Z,31.20
2017-12-12T08:48:24.202Z,22.10
2017-12-12T08:50:52.099Z,24.20
2017-12-12T08:53:21.602Z,27.20
2017-12-12T08:55:49.388Z,22.00
2017-12-12T08:58:17.149Z,27.85
2017-12-12T09:00:47.534Z,22.93
2017-12-12T09:03:15.062Z,33.13
2017-12-12T09:05:43.575Z,23.50
2017-12-12T09:08:11.069Z,23.90
2017-12-12T09:10:39.092Z,22.40
2017-12-12T09:13:07.864Z,18.07
2017-12-12T09:15:35.913Z,18.57
2017-12-12T09:18:04.502Z,18.00
2017-12-12T09:20:32.329Z,21.70
2017-12-12T09:22:59.874Z,19.00
2017-12-12T09:25:27.530Z,15.60
2017-12-12T09:27:55.035Z,20.60
2017-12-12T09:30:22.849Z,16.60
2017-12-12T09:32:50.440Z,17.43
2017-12-12T09:35:19.983Z,16.37
2017-12-12T09:37:47.530Z,14.70
2017-12-12T09:40:15.285Z,15.53
2017-12-12T09:42:43.218Z,14.47
2017-12-12T09:45:15.442Z,13.45
2017-12-12T09:47:42.878Z,14.43
2017-12-12T09:50:10.458Z,13.85
2017-12-12T09:52:38.534Z,13.23
2017-12-12T09:55:06.335Z,12.10
2017-12-12T09:57:33.994Z,11.65
2017-12-12T10:00:03.502Z,12.80
2017-12-12T10:02:31.032Z,13.80
2017-12-12T10:04:58.466Z,11.37
2017-12-12T10:07:25.947Z,11.87
2017-12-12T10:09:53.438Z,9.50
2017-12-12T10:12:20.852Z,19.75
2017-12-12T10:14:50.477Z,9.90
2017-12-12T10:17:17.908Z,11.75
2017-12-12T10:19:45.414Z,9.30
2017-12-12T10:22:13.112Z,14.53
2017-12-12T10:24:40.497Z,8.95
2017-12-12T10:27:07.945Z,9.03
2017-12-12T10:29:35.330Z,8.77
2017-12-12T10:32:02.732Z,15.63
2017-12-12T10:34:30.234Z,9.23
2017-12-12T10:36:57.886Z,8.65
2017-12-12T10:39:25.361Z,8.80
2017-12-12T10:41:52.993Z,7.13
2017-12-12T10:44:20.583Z,9.33
2017-12-12T10:46:48.087Z,7.95
2017-12-12T10:49:15.748Z,7.70
2017-12-12T10:51:45.543Z,23.73
2017-12-12T10:54:13.106Z,8.07
2017-12-12T10:56:40.591Z,8.80
2017-12-12T10:59:07.994Z,8.97
2017-12-12T11:01:35.566Z,9.25
2017-12-12T11:04:02.990Z,7.90
2017-12-12T11:06:30.656Z,7.60
2017-12-12T11:08:58.126Z,8.07
2017-12-12T11:11:26.156Z,8.50
2017-12-12T11:13:54.554Z,7.70
2017-12-12T11:16:22.189Z,10.90
2017-12-12T11:18:49.729Z,8.50
2017-12-12T11:21:17.175Z,6.63
2017-12-12T11:23:46.141Z,7.00
2017-12-12T11:26:14.939Z,7.70
2017-12-12T11:29:00.713Z,6.40
2017-12-12T11:31:28.349Z,5.85
2017-12-12T11:33:56.175Z,7.50
2017-12-12T11:36:23.808Z,7.70
2017-12-12T11:38:51.776Z,6.37
2017-12-12T11:41:19.717Z,6.25
2017-12-12T11:43:47.552Z,8.65
2017-12-12T11:46:15.786Z,6.93
2017-12-12T11:48:43.697Z,8.15
2017-12-12T11:51:12.075Z,5.47
2017-12-12T11:53:40.473Z,6.37
2017-12-12T11:56:08.388Z,6.35
2017-12-12T11:58:35.872Z,6.07
2017-12-12T12:01:17.170Z,6.50
2017-12-12T12:03:45.166Z,6.10
2017-12-12T12:06:12.886Z,6.17
2017-12-12T12:08:40.664Z,13.75
2017-12-12T12:11:08.644Z,4.73
2017-12-12T12:13:36.602Z,8.60
2017-12-12T12:18:42.054Z,6.05
2017-12-12T12:21:10.402Z,6.77
2017-12-12T12:23:39.488Z,9.53
2017-12-12T12:26:07.356Z,4.80
2017-12-12T12:28:36.178Z,6.00
2017-12-12T12:31:06.262Z,7.20
2017-12-12T12:33:34.764Z,6.67
2017-12-12T12:36:02.631Z,6.57
2017-12-12T12:38:30.377Z,5.43
2017-12-12T12:40:57.942Z,6.93
2017-12-12T12:43:25.686Z,5.97
2017-12-12T12:45:53.443Z,16.77
2017-12-12T12:48:21.246Z,4.53
2017-12-12T12:50:49.375Z,5.30
2017-12-12T12:53:17.287Z,4.90
2017-12-12T12:55:44.954Z,5.13
2017-12-12T12:58:12.756Z,5.90
2017-12-12T13:00:40.688Z,5.55
2017-12-12T13:03:08.145Z,4.53
2017-12-12T13:05:35.584Z,5.83
2017-12-12T13:08:03.011Z,8.45
2017-12-12T13:10:30.473Z,5.53
2017-12-12T13:12:57.871Z,4.33
2017-12-12T13:15:25.395Z,9.70
2017-12-12T13:17:52.897Z,5.03
2017-12-12T13:20:20.379Z,6.43
2017-12-12T13:22:47.990Z,6.30
2017-12-12T13:25:15.734Z,4.93
2017-12-12T13:27:44.267Z,5.10
2017-12-12T13:30:11.899Z,4.97
2017-12-12T13:32:39.349Z,5.75
2017-12-12T13:35:06.875Z,5.70
2017-12-12T13:37:34.352Z,4.75
2017-12-12T13:40:01.835Z,6.27
2017-12-12T13:42:29.489Z,15.03
2017-12-12T13:44:58.052Z,5.47
2017-12-12T13:47:25.564Z,5.53
2017-12-12T13:49:53.425Z,6.10
2017-12-12T13:52:21.020Z,8.40
2017-12-12T13:54:48.397Z,6.27
2017-12-12T13:57:15.892Z,7.45
2017-12-12T13:59:44.305Z,5.85
2017-12-12T14:02:11.973Z,9.67
2017-12-12T14:04:39.400Z,5.15
2017-12-12T14:07:06.939Z,6.40
2017-12-12T14:09:34.417Z,5.85
2017-12-12T14:12:01.819Z,7.17
2017-12-12T14:14:29.222Z,7.15
2017-12-12T14:16:56.715Z,20.03
2017-12-12T14:19:24.188Z,7.70
2017-12-12T14:21:51.619Z,8.20
2017-12-12T14:24:19.519Z,7.25
2017-12-12T14:26:48.500Z,9.95
2017-12-12T14:29:15.963Z,7.67
2017-12-12T14:31:43.578Z,9.40
2017-12-12T14:34:11.382Z,9.30
2017-12-12T14:36:38.979Z,11.70
2017-12-12T14:39:06.420Z,12.83
2017-12-12T14:41:34.681Z,16.13
2017-12-12T14:44:02.115Z,11.80
2017-12-12T14:46:29.501Z,13.67
2017-12-12T14:48:56.933Z,13.15
2017-12-12T14:51:24.452Z,13.27
2017-12-12T14:53:52.326Z,19.30
2017-12-12T14:56:19.947Z,17.35
2017-12-12T14:58:47.525Z,12.97
2017-12-12T15:01:15.428Z,17.50
2017-12-12T15:03:43.345Z,15.73
2017-12-12T15:06:11.007Z,15.40
2017-12-12T15:08:38.458Z,16.60
2017-12-12T15:11:06.027Z,15.90
2017-12-12T15:13:33.507Z,18.47
2017-12-12T15:16:00.940Z,17.90
2017-12-12T15:18:28.644Z,15.70
2017-12-12T15:20:56.123Z,17.47
2017-12-12T15:23:23.757Z,16.63
2017-12-12T15:25:51.485Z,19.67
2017-12-12T15:28:18.898Z,21.05
2017-12-12T15:30:46.566Z,21.33
2017-12-12T15:33:14.042Z,19.70
2017-12-12T15:35:44.803Z,26.80
2017-12-12T15:38:12.337Z,19.00
2017-12-12T15:40:39.742Z,23.55
2017-12-12T15:43:07.302Z,18.00
2017-12-12T15:45:34.769Z,20.35
2017-12-12T15:48:02.204Z,16.70
2017-12-12T15:50:29.634Z,32.83
2017-12-12T15:52:57.775Z,18.87
2017-12-12T15:55:25.303Z,21.00
2017-12-12T15:57:52.740Z,33.73
2017-12-12T16:00:20.208Z,21.57
2017-12-12T16:02:47.699Z,20.27
2017-12-12T16:05:15.433Z,21.55
2017-12-12T16:07:42.964Z,22.67
2017-12-12T16:10:10.364Z,19.40
2017-12-12T16:12:37.792Z,22.57
2017-12-12T16:15:05.449Z,27.20
2017-12-12T16:17:32.899Z,22.70
2017-12-12T16:20:00.338Z,24.10
2017-12-12T16:22:27.710Z,22.40
2017-12-12T16:24:55.188Z,22.10
2017-12-12T16:27:22.827Z,26.40
2017-12-12T16:29:50.343Z,23.50
2017-12-12T16:32:17.827Z,30.40
2017-12-12T16:34:45.455Z,31.33
2017-12-12T16:37:14.176Z,29.47
2017-12-12T16:39:41.596Z,28.57
2017-12-12T16:42:09.153Z,37.05
2017-12-12T16:44:36.901Z,28.60
2017-12-12T16:47:04.514Z,30.00
2017-12-12T16:49:31.942Z,29.10
2017-12-12T16:51:59.379Z,29.57
2017-12-12T16:54:26.794Z,29.23
2017-12-12T16:56:54.216Z,28.07
2017-12-12T16:59:23.161Z,26.43
2017-12-12T17:01:51.031Z,28.30
2017-12-12T17:04:18.463Z,29.20
2017-12-12T17:06:47.223Z,25.65
2017-12-12T17:09:15.886Z,25.17
2017-12-12T17:11:43.258Z,28.57
2017-12-12T17:14:10.766Z,23.03
2017-12-12T17:16:38.238Z,24.00
2017-12-12T17:19:05.967Z,24.80
2017-12-12T17:21:33.407Z,22.50
2017-12-12T17:24:00.820Z,20.00
2017-12-12T17:26:30.485Z,20.40
2017-12-12T17:28:57.947Z,20.15
2017-12-12T17:31:25.310Z,20.45
2017-12-12T17:33:52.787Z,20.85
2017-12-12T17:36:20.218Z,24.97
2017-12-12T17:38:47.680Z,25.07
2017-12-12T17:41:15.095Z,20.17
2017-12-12T17:43:42.634Z,23.50
2017-12-12T17:46:10.347Z,25.77
2017-12-12T17:48:38.105Z,21.20
2017-12-12T17:51:05.547Z,22.97
2017-12-12T17:53:32.964Z,21.65
2017-12-12T17:56:00.385Z,22.57
2017-12-12T17:58:27.948Z,24.35
2017-12-12T18:00:55.371Z,18.30
2017-12-12T18:03:23.058Z,21.43
2017-12-12T18:05:50.566Z,20.20
2017-12-12T18:08:17.947Z,23.70
2017-12-12T18:10:45.404Z,21.83
2017-12-12T18:13:12.878Z,23.03
2017-12-12T18:15:40.471Z,22.60
2017-12-12T18:18:07.853Z,18.80
2017-12-12T18:20:35.295Z,21.65
2017-12-12T18:23:02.687Z,21.10
2017-12-12T18:25:30.123Z,19.17
2017-12-12T18:27:59.040Z,21.70
2017-12-12T18:30:26.477Z,21.80
2017-12-12T18:32:53.972Z,20.77
2017-12-12T18:35:21.344Z,20.45
2017-12-12T18:37:48.801Z,20.87
2017-12-12T18:40:16.170Z,24.35
2017-12-12T18:42:43.551Z,21.10
2017-12-12T18:45:10.988Z,19.85
2017-12-12T18:47:38.394Z,18.63
2017-12-12T18:50:05.819Z,18.07
2017-12-12T18:52:33.216Z,19.80
2017-12-12T18:55:00.660Z,22.15
2017-12-12T18:57:28.063Z,22.30
2017-12-12T18:59:55.459Z,23.43
2017-12-12T19:02:22.895Z,22.55
2017-12-12T19:04:50.391Z,20.35
2017-12-12T19:07:17.796Z,26.30
2017-12-12T19:09:45.174Z,24.03
2017-12-12T19:12:12.635Z,19.50
2017-12-12T19:14:40.229Z,22.27
2017-12-12T19:17:07.832Z,26.13
2017-12-12T19:19:35.233Z,19.30
2017-12-12T19:22:02.676Z,22.70
2017-12-12T19:24:30.129Z,22.23
2017-12-12T19:26:57.521Z,22.10
2017-12-12T19:29:24.956Z,22.83
2017-12-12T19:31:52.396Z,22.97
2017-12-12T19:34:19.915Z,22.37
2017-12-12T19:36:47.336Z,19.80
2017-12-12T19:39:14.928Z,21.45
2017-12-12T19:41:42.372Z,24.85
2017-12-12T19:44:09.844Z,19.55
2017-12-12T19:46:37.233Z,20.00
2017-12-12T19:49:04.768Z,18.90
2017-12-12T19:51:32.151Z,17.93
2017-12-12T19:53:59.577Z,18.40
2017-12-12T19:56:27.024Z,20.10
2017-12-12T19:58:54.412Z,26.53
2017-12-12T20:01:21.861Z,21.35
2017-12-12T20:03:49.368Z,21.00
2017-12-12T20:06:16.749Z,20.65
2017-12-12T20:08:44.220Z,17.63
2017-12-12T20:11:13.198Z,17.93
2017-12-12T20:13:40.704Z,18.45
2017-12-12T20:16:08.138Z,17.90
2017-12-12T20:18:35.775Z,19.35
2017-12-12T20:21:03.235Z,20.65
2017-12-12T20:23:30.846Z,20.20
2017-12-12T20:25:58.353Z,18.47
2017-12-12T20:28:26.179Z,20.35
2017-12-12T20:30:53.572Z,19.10
2017-12-12T20:33:21.010Z,22.10
2017-12-12T20:35:48.393Z,20.47
2017-12-12T20:38:15.887Z,19.63
2017-12-12T20:40:43.290Z,19.00
2017-12-12T20:43:10.884Z,21.27
2017-12-12T20:45:38.505Z,18.15
2017-12-12T20:48:05.918Z,19.70
2017-12-12T20:50:33.480Z,20.60
2017-12-12T20:53:01.001Z,20.05
2017-12-12T20:55:28.478Z,21.77
2017-12-12T20:57:55.962Z,19.47
2017-12-12T21:00:23.525Z,22.45
2017-12-12T21:02:51.022Z,21.70
2017-12-12T21:05:18.395Z,19.80
2017-12-12T21:07:46.079Z,17.57
2017-12-12T21:10:13.597Z,15.97
2017-12-12T21:12:41.025Z,20.50
2017-12-12T21:15:08.492Z,17.55
2017-12-12T21:17:35.964Z,19.30
2017-12-12T21:20:03.370Z,21.45
2017-12-12T21:22:30.939Z,17.35
2017-12-12T21:24:58.407Z,19.95
2017-12-12T21:27:25.903Z,18.77
2017-12-12T21:29:53.457Z,17.40
2017-12-12T21:32:20.894Z,18.40
2017-12-12T21:34:48.272Z,16.35
2017-12-12T21:37:15.722Z,19.15
2017-12-12T21:39:43.119Z,17.40
2017-12-12T21:42:10.792Z,16.90
2017-12-12T21:44:38.205Z,21.00
2017-12-12T21:47:05.686Z,22.70
2017-12-12T21:49:33.122Z,19.55
2017-12-12T21:52:00.694Z,16.67
2017-12-12T21:54:28.128Z,17.40
2017-12-12T21:56:55.523Z,18.80
2017-12-12T21:59:23.195Z,16.50
2017-12-12T22:01:50.749Z,16.87
2017-12-12T22:04:18.199Z,19.83
2017-12-12T22:06:45.587Z,17.47
2017-12-12T22:09:12.982Z,17.10
2017-12-12T22:11:40.573Z,17.60
2017-12-12T22:14:08.010Z,16.37
2017-12-12T22:16:35.404Z,16.30
2017-12-12T22:19:02.839Z,17.45
2017-12-12T22:21:30.297Z,16.40
2017-12-12T22:23:57.760Z,17.50
2017-12-12T22:26:25.281Z,17.40
2017-12-12T22:28:52.841Z,18.70
2017-12-12T22:31:20.222Z,16.37
2017-12-12T22:33:47.660Z,20.60
2017-12-12T22:36:15.108Z,16.50
2017-12-12T22:38:42.655Z,16.00
2017-12-12T22:41:10.281Z,15.35
2017-12-12T22:43:37.744Z,14.85
2017-12-12T22:46:05.215Z,15.30
2017-12-12T22:48:32.685Z,16.67
2017-12-12T22:51:00.113Z,17.47
2017-12-12T22:53:27.570Z,17.80
2017-12-12T22:55:55.040Z,16.17
2017-12-12T22:58:22.581Z,18.60
2017-12-12T23:00:49.990Z,24.55
2017-12-12T23:03:17.446Z,16.43
2017-12-12T23:05:44.867Z,17.20
2017-12-12T23:08:12.580Z,16.73
2017-12-12T23:10:40.031Z,15.40
2017-12-12T23:13:07.435Z,17.90
2017-12-12T23:15:34.865Z,15.80
2017-12-12T23:18:02.368Z,16.37
2017-12-12T23:20:29.857Z,14.80
2017-12-12T23:22:57.293Z,18.57
2017-12-12T23:25:24.760Z,16.20
2017-12-12T23:27:52.132Z,16.10
2017-12-12T23:30:19.540Z,17.55
2017-12-12T23:32:47.089Z,16.53
2017-12-12T23:35:14.558Z,14.95
2017-12-12T23:37:41.988Z,15.10
2017-12-12T23:40:09.404Z,15.65
2017-12-12T23:42:36.849Z,13.40
2017-12-12T23:45:04.260Z,15.77
2017-12-12T23:47:31.688Z,15.43
2017-12-12T23:49:59.091Z,15.87
2017-12-12T23:52:26.527Z,14.30
2017-12-12T23:54:53.928Z,15.47
2017-12-12T23:57:21.329Z,13.87
2017-12-12T23:59:48.862Z,19.17
